sensor_id;sensor_type;location;lat;lon;timestamp;pressure;altitude;pressure_sealevel;temperature;humidity
63399;BME280;49533;-34.520;150.798;2023-02-19T00:01:23;101009.16;;;23.68;61.10
63399;BME280;49533;-34.520;150.798;2023-02-19T00:03:52;101007.19;;;23.68;61.05
63399;BME280;49533;-34.520;150.798;2023-02-19T00:06:21;100995.66;;;23.66;61.21
63399;BME280;49533;-34.520;150.798;2023-02-19T00:08:49;100996.91;;;23.72;61.13
63399;BME280;49533;-34.520;150.798;2023-02-19T00:11:19;101005.28;;;23.76;61.04
63399;BME280;49533;-34.520;150.798;2023-02-19T00:13:49;101000.97;;;23.82;60.92
63399;BME280;49533;-34.520;150.798;2023-02-19T00:16:25;100992.69;;;23.89;61.00
63399;BME280;49533;-34.520;150.798;2023-02-19T00:18:54;100992.69;;;23.93;60.98
63399;BME280;49533;-34.520;150.798;2023-02-19T00:21:22;100993.50;;;23.93;60.81
63399;BME280;49533;-34.520;150.798;2023-02-19T00:23:52;100998.28;;;23.96;60.80
63399;BME280;49533;-34.520;150.798;2023-02-19T00:26:20;100995.94;;;23.98;60.77
63399;BME280;49533;-34.520;150.798;2023-02-19T00:28:49;100992.38;;;24.01;60.95
63399;BME280;49533;-34.520;150.798;2023-02-19T00:31:20;100994.75;;;24.03;60.76
63399;BME280;49533;-34.520;150.798;2023-02-19T00:33:50;100989.59;;;24.01;60.97
63399;BME280;49533;-34.520;150.798;2023-02-19T00:36:17;100993.16;;;24.05;61.02
63399;BME280;49533;-34.520;150.798;2023-02-19T00:38:45;100992.78;;;24.07;61.33
63399;BME280;49533;-34.520;150.798;2023-02-19T00:41:14;100989.63;;;24.08;61.09
63399;BME280;49533;-34.520;150.798;2023-02-19T00:43:53;100984.84;;;24.05;61.00
63399;BME280;49533;-34.520;150.798;2023-02-19T00:46:24;100989.63;;;24.08;61.11
63399;BME280;49533;-34.520;150.798;2023-02-19T00:48:53;100992.00;;;24.10;61.13
63399;BME280;49533;-34.520;150.798;2023-02-19T00:51:21;100979.34;;;24.13;61.29
63399;BME280;49533;-34.520;150.798;2023-02-19T00:53:49;100981.31;;;24.12;61.16
63399;BME280;49533;-34.520;150.798;2023-02-19T00:56:16;100977.75;;;24.15;61.06
63399;BME280;49533;-34.520;150.798;2023-02-19T00:58:44;100977.75;;;24.15;60.91
63399;BME280;49533;-34.520;150.798;2023-02-19T01:01:12;100976.97;;;24.15;61.05
63399;BME280;49533;-34.520;150.798;2023-02-19T01:03:39;100978.16;;;24.14;61.01
63399;BME280;49533;-34.520;150.798;2023-02-19T01:06:08;100971.78;;;24.13;61.45
63399;BME280;49533;-34.520;150.798;2023-02-19T01:08:36;100972.63;;;24.14;61.44
63399;BME280;49533;-34.520;150.798;2023-02-19T01:11:05;100969.06;;;24.17;61.62
63399;BME280;49533;-34.520;150.798;2023-02-19T01:13:32;100973.03;;;24.19;61.74
63399;BME280;49533;-34.520;150.798;2023-02-19T01:16:06;100973.03;;;24.19;61.78
63399;BME280;49533;-34.520;150.798;2023-02-19T01:18:35;100967.44;;;24.16;61.13
63399;BME280;49533;-34.520;150.798;2023-02-19T01:21:08;100975.41;;;24.17;61.00
63399;BME280;49533;-34.520;150.798;2023-02-19T01:23:37;100972.63;;;24.17;60.97
63399;BME280;49533;-34.520;150.798;2023-02-19T01:26:07;100961.94;;;24.19;61.42
63399;BME280;49533;-34.520;150.798;2023-02-19T01:28:35;100967.91;;;24.21;61.51
63399;BME280;49533;-34.520;150.798;2023-02-19T01:31:05;100968.28;;;24.23;61.53
63399;BME280;49533;-34.520;150.798;2023-02-19T01:33:33;100971.50;;;24.29;61.79
63399;BME280;49533;-34.520;150.798;2023-02-19T01:36:03;100969.09;;;24.27;61.25
63399;BME280;49533;-34.520;150.798;2023-02-19T01:38:30;100963.13;;;24.25;61.47
63399;BME280;49533;-34.520;150.798;2023-02-19T01:41:00;100957.19;;;24.30;61.44
63399;BME280;49533;-34.520;150.798;2023-02-19T01:43:30;100958.81;;;24.32;61.69
63399;BME280;49533;-34.520;150.798;2023-02-19T01:45:57;100952.84;;;24.33;61.28
63399;BME280;49533;-34.520;150.798;2023-02-19T01:48:31;100948.09;;;24.34;62.02
63399;BME280;49533;-34.520;150.798;2023-02-19T01:51:12;100951.69;;;24.38;61.58
63399;BME280;49533;-34.520;150.798;2023-02-19T01:53:45;100939.78;;;24.41;61.58
63399;BME280;49533;-34.520;150.798;2023-02-19T01:56:15;100936.63;;;24.42;61.27
63399;BME280;49533;-34.520;150.798;2023-02-19T01:58:44;100944.56;;;24.44;61.32
63399;BME280;49533;-34.520;150.798;2023-02-19T02:01:12;100938.22;;;24.43;61.26
63399;BME280;49533;-34.520;150.798;2023-02-19T02:03:41;100939.00;;;24.44;61.49
63399;BME280;49533;-34.520;150.798;2023-02-19T02:06:19;100942.56;;;24.41;61.60
63399;BME280;49533;-34.520;150.798;2023-02-19T02:08:50;100931.47;;;24.41;62.04
63399;BME280;49533;-34.520;150.798;2023-02-19T02:11:30;100933.44;;;24.44;61.79
63399;BME280;49533;-34.520;150.798;2023-02-19T02:13:58;100936.28;;;24.47;61.74
63399;BME280;49533;-34.520;150.798;2023-02-19T02:19:51;100920.81;;;24.54;61.75
63399;BME280;49533;-34.520;150.798;2023-02-19T02:31:34;100928.00;;;24.69;62.08
63399;BME280;49533;-34.520;150.798;2023-02-19T02:34:11;100921.63;;;24.72;62.34
63399;BME280;49533;-34.520;150.798;2023-02-19T02:36:43;100927.22;;;24.76;62.31
63399;BME280;49533;-34.520;150.798;2023-02-19T02:39:13;100924.03;;;24.77;62.36
63399;BME280;49533;-34.520;150.798;2023-02-19T02:41:43;100926.44;;;24.75;62.10
63399;BME280;49533;-34.520;150.798;2023-02-19T02:44:11;100921.63;;;24.72;62.38
63399;BME280;49533;-34.520;150.798;2023-02-19T02:46:41;100933.56;;;24.72;62.14
63399;BME280;49533;-34.520;150.798;2023-02-19T02:49:19;100939.50;;;24.74;62.29
63399;BME280;49533;-34.520;150.798;2023-02-19T02:51:50;100922.44;;;24.76;62.75
63399;BME280;49533;-34.520;150.798;2023-02-19T02:54:25;100920.84;;;24.71;62.45
63399;BME280;49533;-34.520;150.798;2023-02-19T02:57:07;100926.81;;;24.70;62.54
63399;BME280;49533;-34.520;150.798;2023-02-19T02:59:41;100920.88;;;24.75;62.93
63399;BME280;49533;-34.520;150.798;2023-02-19T03:02:18;100924.03;;;24.77;62.76
63399;BME280;49533;-34.520;150.798;2023-02-19T03:04:59;100916.88;;;24.76;62.93
63399;BME280;49533;-34.520;150.798;2023-02-19T03:07:52;100920.06;;;24.82;62.82
63399;BME280;49533;-34.520;150.798;2023-02-19T03:10:27;100914.50;;;24.82;62.37
63399;BME280;49533;-34.520;150.798;2023-02-19T03:12:56;100915.72;;;24.81;62.47
63399;BME280;49533;-34.520;150.798;2023-02-19T03:15:42;100918.09;;;24.82;62.40
63399;BME280;49533;-34.520;150.798;2023-02-19T03:18:22;100913.72;;;24.85;62.72
63399;BME280;49533;-34.520;150.798;2023-02-19T03:21:05;100922.84;;;24.82;62.46
63399;BME280;49533;-34.520;150.798;2023-02-19T03:23:33;100917.69;;;24.84;62.48
63399;BME280;49533;-34.520;150.798;2023-02-19T03:26:14;100917.31;;;24.85;62.42
63399;BME280;49533;-34.520;150.798;2023-02-19T03:28:46;100916.50;;;24.70;62.45
63399;BME280;49533;-34.520;150.798;2023-02-19T03:31:28;100912.13;;;24.73;62.80
63399;BME280;49533;-34.520;150.798;2023-02-19T03:33:59;100922.44;;;24.80;62.86
63399;BME280;49533;-34.520;150.798;2023-02-19T03:36:34;100914.09;;;24.80;63.04
63399;BME280;49533;-34.520;150.798;2023-02-19T03:39:06;100899.44;;;24.83;62.65
63399;BME280;49533;-34.520;150.798;2023-02-19T03:41:47;100899.81;;;24.85;63.03
63399;BME280;49533;-34.520;150.798;2023-02-19T03:44:39;100903.41;;;24.78;62.43
63399;BME280;49533;-34.520;150.798;2023-02-19T03:47:25;100890.69;;;24.81;62.81
63399;BME280;49533;-34.520;150.798;2023-02-19T03:49:59;100888.69;;;24.85;62.65
63399;BME280;49533;-34.520;150.798;2023-02-19T03:52:41;100889.09;;;24.80;62.63
63399;BME280;49533;-34.520;150.798;2023-02-19T03:55:17;100878.78;;;24.87;62.94
63399;BME280;49533;-34.520;150.798;2023-02-19T03:57:54;100879.59;;;24.88;62.54
63399;BME280;49533;-34.520;150.798;2023-02-19T04:00:37;100874.44;;;24.93;63.09
63399;BME280;49533;-34.520;150.798;2023-02-19T04:06:01;100873.63;;;25.04;62.77
63399;BME280;49533;-34.520;150.798;2023-02-19T04:08:31;100865.69;;;25.06;62.51
63399;BME280;49533;-34.520;150.798;2023-02-19T04:11:00;100866.06;;;25.08;62.56
63399;BME280;49533;-34.520;150.798;2023-02-19T04:13:33;100869.25;;;25.10;62.31
63399;BME280;49533;-34.520;150.798;2023-02-19T04:16:06;100877.22;;;25.11;62.63
63399;BME280;49533;-34.520;150.798;2023-02-19T04:18:37;100876.78;;;25.13;62.33
63399;BME280;49533;-34.520;150.798;2023-02-19T04:21:06;100871.63;;;25.15;62.68
63399;BME280;49533;-34.520;150.798;2023-02-19T04:23:39;100878.41;;;25.17;62.54
63399;BME280;49533;-34.520;150.798;2023-02-19T04:26:08;100868.91;;;25.19;62.92
63399;BME280;49533;-34.520;150.798;2023-02-19T04:28:38;100860.56;;;25.19;62.37
63399;BME280;49533;-34.520;150.798;2023-02-19T04:31:05;100862.94;;;25.24;62.71
63399;BME280;49533;-34.520;150.798;2023-02-19T04:33:33;100863.72;;;25.24;62.46
63399;BME280;49533;-34.520;150.798;2023-02-19T04:36:00;100860.53;;;25.26;62.73
63399;BME280;49533;-34.520;150.798;2023-02-19T04:38:27;100862.13;;;25.27;62.62
63399;BME280;49533;-34.520;150.798;2023-02-19T04:40:55;100862.53;;;25.29;62.67
63399;BME280;49533;-34.520;150.798;2023-02-19T04:43:22;100855.75;;;25.30;62.67
63399;BME280;49533;-34.520;150.798;2023-02-19T04:45:49;100861.31;;;25.30;62.26
63399;BME280;49533;-34.520;150.798;2023-02-19T04:48:16;100854.97;;;25.33;62.62
63399;BME280;49533;-34.520;150.798;2023-02-19T04:50:43;100849.38;;;25.33;62.32
63399;BME280;49533;-34.520;150.798;2023-02-19T04:53:10;100841.44;;;25.35;62.77
63399;BME280;49533;-34.520;150.798;2023-02-19T04:55:38;100853.75;;;25.37;62.46
63399;BME280;49533;-34.520;150.798;2023-02-19T04:58:05;100854.16;;;25.40;62.80
63399;BME280;49533;-34.520;150.798;2023-02-19T05:00:33;100843.84;;;25.36;62.79
63399;BME280;49533;-34.520;150.798;2023-02-19T05:03:00;100847.78;;;25.43;62.28
63399;BME280;49533;-34.520;150.798;2023-02-19T05:05:27;100846.22;;;25.42;62.43
63399;BME280;49533;-34.520;150.798;2023-02-19T05:07:55;100845.00;;;25.43;62.50
63399;BME280;49533;-34.520;150.798;2023-02-19T05:10:22;100843.41;;;25.45;61.56
63399;BME280;49533;-34.520;150.798;2023-02-19T05:12:49;100831.50;;;25.41;61.88
63399;BME280;49533;-34.520;150.798;2023-02-19T05:15:17;100837.47;;;25.47;62.11
63399;BME280;49533;-34.520;150.798;2023-02-19T05:17:44;100837.44;;;25.50;62.33
63399;BME280;49533;-34.520;150.798;2023-02-19T05:20:11;100836.25;;;25.55;62.48
63399;BME280;49533;-34.520;150.798;2023-02-19T05:22:39;100833.84;;;25.53;61.60
63399;BME280;49533;-34.520;150.798;2023-02-19T05:25:06;100823.13;;;25.48;61.38
63399;BME280;49533;-34.520;150.798;2023-02-19T05:27:33;100832.66;;;25.51;61.55
63399;BME280;49533;-34.520;150.798;2023-02-19T05:30:00;100828.72;;;25.45;61.97
63399;BME280;49533;-34.520;150.798;2023-02-19T05:32:28;100827.50;;;25.49;61.90
63399;BME280;49533;-34.520;150.798;2023-02-19T05:34:55;100823.94;;;25.45;62.02
63399;BME280;49533;-34.520;150.798;2023-02-19T05:37:22;100819.19;;;25.42;61.75
63399;BME280;49533;-34.520;150.798;2023-02-19T05:39:52;100817.97;;;25.43;62.04
63399;BME280;49533;-34.520;150.798;2023-02-19T05:42:19;100813.25;;;25.36;62.54
63399;BME280;49533;-34.520;150.798;2023-02-19T05:44:46;100802.88;;;25.41;62.43
63399;BME280;49533;-34.520;150.798;2023-02-19T05:47:13;100808.47;;;25.30;62.19
63399;BME280;49533;-34.520;150.798;2023-02-19T05:49:40;100807.31;;;25.27;62.15
63399;BME280;49533;-34.520;150.798;2023-02-19T05:52:07;100808.47;;;25.30;62.40
63399;BME280;49533;-34.520;150.798;2023-02-19T05:54:34;100808.09;;;25.31;62.56
63399;BME280;49533;-34.520;150.798;2023-02-19T05:57:01;100806.50;;;25.27;62.17
63399;BME280;49533;-34.520;150.798;2023-02-19T05:59:28;100815.63;;;25.31;62.79
63399;BME280;49533;-34.520;150.798;2023-02-19T06:01:55;100816.81;;;25.30;62.52
63399;BME280;49533;-34.520;150.798;2023-02-19T06:04:24;100810.47;;;25.26;62.65
63399;BME280;49533;-34.520;150.798;2023-02-19T06:06:51;100813.28;;;25.22;63.48
63399;BME280;49533;-34.520;150.798;2023-02-19T06:09:18;100812.06;;;25.12;62.95
63399;BME280;49533;-34.520;150.798;2023-02-19T06:11:46;100806.91;;;25.11;62.85
63399;BME280;49533;-34.520;150.798;2023-02-19T06:14:13;100810.06;;;25.13;62.86
63399;BME280;49533;-34.520;150.798;2023-02-19T06:16:40;100808.91;;;25.25;62.50
63399;BME280;49533;-34.520;150.798;2023-02-19T06:19:38;100807.25;;;25.38;62.42
63399;BME280;49533;-34.520;150.798;2023-02-19T06:22:05;100801.28;;;25.43;61.80
63399;BME280;49533;-34.520;150.798;2023-02-19T06:24:32;100812.78;;;25.52;61.71
63399;BME280;49533;-34.520;150.798;2023-02-19T06:26:59;100807.63;;;25.54;61.63
63399;BME280;49533;-34.520;150.798;2023-02-19T06:29:26;100810.38;;;25.58;61.78
63399;BME280;49533;-34.520;150.798;2023-02-19T06:31:53;100810.38;;;25.62;61.61
63399;BME280;49533;-34.520;150.798;2023-02-19T06:34:20;100814.34;;;25.60;61.46
63399;BME280;49533;-34.520;150.798;2023-02-19T06:36:49;100811.19;;;25.62;61.39
63399;BME280;49533;-34.520;150.798;2023-02-19T06:39:16;100813.53;;;25.64;61.91
63399;BME280;49533;-34.520;150.798;2023-02-19T06:41:43;100815.16;;;25.65;61.62
63399;BME280;49533;-34.520;150.798;2023-02-19T06:44:11;100811.16;;;25.66;61.38
63399;BME280;49533;-34.520;150.798;2023-02-19T06:46:38;100814.34;;;25.68;61.87
63399;BME280;49533;-34.520;150.798;2023-02-19T06:49:05;100810.34;;;25.69;61.66
63399;BME280;49533;-34.520;150.798;2023-02-19T06:51:32;100815.50;;;25.67;61.51
63399;BME280;49533;-34.520;150.798;2023-02-19T06:53:59;100818.69;;;25.69;61.43
63399;BME280;49533;-34.520;150.798;2023-02-19T06:56:33;100821.47;;;25.69;61.26
63399;BME280;49533;-34.520;150.798;2023-02-19T06:59:02;100815.91;;;25.69;61.23
63399;BME280;49533;-34.520;150.798;2023-02-19T07:01:32;100816.31;;;25.71;61.17
63399;BME280;49533;-34.520;150.798;2023-02-19T07:03:59;100813.91;;;25.69;61.22
63399;BME280;49533;-34.520;150.798;2023-02-19T07:06:27;100821.47;;;25.72;60.92
63399;BME280;49533;-34.520;150.798;2023-02-19T07:08:56;100821.47;;;25.72;61.16
63399;BME280;49533;-34.520;150.798;2023-02-19T07:11:24;100811.13;;;25.73;60.97
63399;BME280;49533;-34.520;150.798;2023-02-19T07:13:55;100815.91;;;25.72;60.78
63399;BME280;49533;-34.520;150.798;2023-02-19T07:16:24;100815.91;;;25.72;61.29
63399;BME280;49533;-34.520;150.798;2023-02-19T07:18:51;100818.69;;;25.72;61.37
63399;BME280;49533;-34.520;150.798;2023-02-19T07:21:18;100822.25;;;25.73;61.20
63399;BME280;49533;-34.520;150.798;2023-02-19T07:23:45;100821.47;;;25.72;61.00
63399;BME280;49533;-34.520;150.798;2023-02-19T07:26:15;100819.88;;;25.71;60.97
63399;BME280;49533;-34.520;150.798;2023-02-19T07:28:44;100825.03;;;25.73;61.43
63399;BME280;49533;-34.520;150.798;2023-02-19T07:31:12;100826.63;;;25.74;61.43
63399;BME280;49533;-34.520;150.798;2023-02-19T07:33:41;100827.81;;;25.73;60.89
63399;BME280;49533;-34.520;150.798;2023-02-19T07:36:09;100834.56;;;25.72;60.91
63399;BME280;49533;-34.520;150.798;2023-02-19T07:38:36;100828.22;;;25.71;60.87
63399;BME280;49533;-34.520;150.798;2023-02-19T07:41:05;100830.22;;;25.71;60.88
63399;BME280;49533;-34.520;150.798;2023-02-19T07:43:34;100821.47;;;25.69;61.35
63399;BME280;49533;-34.520;150.798;2023-02-19T07:46:04;100831.81;;;25.68;61.30
63399;BME280;49533;-34.520;150.798;2023-02-19T07:48:34;100837.78;;;25.67;61.34
63399;BME280;49533;-34.520;150.798;2023-02-19T07:51:02;100834.63;;;25.65;60.71
63399;BME280;49533;-34.520;150.798;2023-02-19T07:53:30;100832.63;;;25.65;60.78
63399;BME280;49533;-34.520;150.798;2023-02-19T07:56:00;100844.16;;;25.67;60.82
63399;BME280;49533;-34.520;150.798;2023-02-19T07:58:28;100842.53;;;25.66;61.01
63399;BME280;49533;-34.520;150.798;2023-02-19T08:00:56;100848.13;;;25.66;61.41
63399;BME280;49533;-34.520;150.798;2023-02-19T08:03:23;100852.09;;;25.65;61.26
63399;BME280;49533;-34.520;150.798;2023-02-19T08:05:50;100846.94;;;25.64;61.02
63399;BME280;49533;-34.520;150.798;2023-02-19T08:08:19;100851.72;;;25.63;61.34
63399;BME280;49533;-34.520;150.798;2023-02-19T08:10:46;100851.72;;;25.63;61.51
63399;BME280;49533;-34.520;150.798;2023-02-19T08:13:26;100854.88;;;25.62;61.14
63399;BME280;49533;-34.520;150.798;2023-02-19T08:18:38;100854.91;;;25.58;61.21
63399;BME280;49533;-34.520;150.798;2023-02-19T08:21:05;100854.91;;;25.58;61.23
63399;BME280;49533;-34.520;150.798;2023-02-19T08:23:32;100861.25;;;25.58;61.48
63399;BME280;49533;-34.520;150.798;2023-02-19T08:26:00;100861.66;;;25.57;61.56
63399;BME280;49533;-34.520;150.798;2023-02-19T08:28:29;100863.63;;;25.56;61.69
63399;BME280;49533;-34.520;150.798;2023-02-19T08:31:01;100865.63;;;25.56;61.29
63399;BME280;49533;-34.520;150.798;2023-02-19T08:33:29;100874.78;;;25.53;61.66
63399;BME280;49533;-34.520;150.798;2023-02-19T08:35:59;100875.56;;;25.53;61.24
63399;BME280;49533;-34.520;150.798;2023-02-19T08:38:27;100866.47;;;25.49;61.36
63399;BME280;49533;-34.520;150.798;2023-02-19T08:40:53;100864.84;;;25.48;61.28
63399;BME280;49533;-34.520;150.798;2023-02-19T08:43:21;100866.03;;;25.51;61.32
63399;BME280;49533;-34.520;150.798;2023-02-19T08:45:52;100871.59;;;25.51;61.70
63399;BME280;49533;-34.520;150.798;2023-02-19T08:48:20;100875.97;;;25.48;61.66
63399;BME280;49533;-34.520;150.798;2023-02-19T08:50:55;100878.75;;;25.48;61.48
63399;BME280;49533;-34.520;150.798;2023-02-19T08:53:23;100881.16;;;25.50;61.74
63399;BME280;49533;-34.520;150.798;2023-02-19T08:55:51;100881.97;;;25.47;61.73
63399;BME280;49533;-34.520;150.798;2023-02-19T08:58:18;100882.75;;;25.47;61.39
63399;BME280;49533;-34.520;150.798;2023-02-19T09:00:45;100881.16;;;25.46;61.22
63399;BME280;49533;-34.520;150.798;2023-02-19T09:03:13;100884.31;;;25.48;61.19
63399;BME280;49533;-34.520;150.798;2023-02-19T09:05:40;100889.50;;;25.46;61.75
63399;BME280;49533;-34.520;150.798;2023-02-19T09:08:08;100892.28;;;25.43;61.10
63399;BME280;49533;-34.520;150.798;2023-02-19T09:10:35;100894.28;;;25.42;61.39
63399;BME280;49533;-34.520;150.798;2023-02-19T09:13:02;100892.31;;;25.39;61.63
63399;BME280;49533;-34.520;150.798;2023-02-19T09:15:29;100888.31;;;25.40;61.92
63399;BME280;49533;-34.520;150.798;2023-02-19T09:17:57;100895.09;;;25.39;61.52
63399;BME280;49533;-34.520;150.798;2023-02-19T09:20:24;100908.19;;;25.38;61.88
63399;BME280;49533;-34.520;150.798;2023-02-19T09:22:56;100901.84;;;25.38;61.54
63399;BME280;49533;-34.520;150.798;2023-02-19T09:25:24;100906.59;;;25.37;61.48
63399;BME280;49533;-34.520;150.798;2023-02-19T09:27:54;100910.19;;;25.34;61.55
63399;BME280;49533;-34.520;150.798;2023-02-19T09:30:21;100916.94;;;25.33;61.78
63399;BME280;49533;-34.520;150.798;2023-02-19T09:32:48;100920.13;;;25.32;61.85
63399;BME280;49533;-34.520;150.798;2023-02-19T09:35:16;100913.34;;;25.33;61.79
63399;BME280;49533;-34.520;150.798;2023-02-19T09:37:43;100918.53;;;25.31;61.98
63399;BME280;49533;-34.520;150.798;2023-02-19T09:40:10;100919.72;;;25.30;61.94
63399;BME280;49533;-34.520;150.798;2023-02-19T09:42:40;100920.94;;;25.29;61.60
63399;BME280;49533;-34.520;150.798;2023-02-19T09:45:16;100926.88;;;25.27;61.79
63399;BME280;49533;-34.520;150.798;2023-02-19T09:47:45;100934.44;;;25.27;61.67
63399;BME280;49533;-34.520;150.798;2023-02-19T09:50:16;100930.88;;;25.26;61.60
63399;BME280;49533;-34.520;150.798;2023-02-19T09:52:53;100928.88;;;25.27;61.90
63399;BME280;49533;-34.520;150.798;2023-02-19T09:55:35;100933.22;;;25.21;61.85
63399;BME280;49533;-34.520;150.798;2023-02-19T09:58:17;100939.59;;;25.21;61.66
63399;BME280;49533;-34.520;150.798;2023-02-19T10:00:48;100948.72;;;25.18;61.58
63399;BME280;49533;-34.520;150.798;2023-02-19T10:03:24;100945.53;;;25.20;61.92
63399;BME280;49533;-34.520;150.798;2023-02-19T10:06:00;100945.94;;;25.18;62.15
63399;BME280;49533;-34.520;150.798;2023-02-19T10:08:32;100949.47;;;25.15;62.12
63399;BME280;49533;-34.520;150.798;2023-02-19T10:11:01;100947.13;;;25.13;62.22
63399;BME280;49533;-34.520;150.798;2023-02-19T10:13:36;100949.50;;;25.11;61.92
63399;BME280;49533;-34.520;150.798;2023-02-19T10:16:09;100955.44;;;25.10;62.35
63399;BME280;49533;-34.520;150.798;2023-02-19T10:18:42;100958.63;;;25.12;62.02
63399;BME280;49533;-34.520;150.798;2023-02-19T10:21:15;100961.78;;;25.10;62.47
63399;BME280;49533;-34.520;150.798;2023-02-19T10:23:47;100968.94;;;25.08;62.21
63399;BME280;49533;-34.520;150.798;2023-02-19T10:26:16;100966.97;;;25.08;62.53
63399;BME280;49533;-34.520;150.798;2023-02-19T10:28:43;100969.75;;;25.08;62.30
63399;BME280;49533;-34.520;150.798;2023-02-19T10:31:17;100973.72;;;25.04;62.46
63399;BME280;49533;-34.520;150.798;2023-02-19T10:33:53;100982.84;;;25.04;62.08
63399;BME280;49533;-34.520;150.798;2023-02-19T10:36:32;100973.69;;;25.07;62.38
63399;BME280;49533;-34.520;150.798;2023-02-19T10:39:28;100980.06;;;25.04;62.39
63399;BME280;49533;-34.520;150.798;2023-02-19T10:41:52;100979.28;;;25.04;62.27
63399;BME280;49533;-34.520;150.798;2023-02-19T10:44:23;100981.25;;;25.03;62.40
63399;BME280;49533;-34.520;150.798;2023-02-19T10:46:54;100986.81;;;25.00;62.02
63399;BME280;49533;-34.520;150.798;2023-02-19T10:49:26;100986.81;;;24.96;62.62
63399;BME280;49533;-34.520;150.798;2023-02-19T10:51:59;100985.19;;;24.95;62.53
63399;BME280;49533;-34.520;150.798;2023-02-19T10:54:31;100987.59;;;24.97;62.54
63399;BME280;49533;-34.520;150.798;2023-02-19T10:57:22;100985.19;;;24.95;62.60
63399;BME280;49533;-34.520;150.798;2023-02-19T10:59:57;100987.59;;;24.93;62.48
63399;BME280;49533;-34.520;150.798;2023-02-19T11:02:27;100986.78;;;24.89;62.57
63399;BME280;49533;-34.520;150.798;2023-02-19T11:05:17;100995.53;;;24.91;62.59
63399;BME280;49533;-34.520;150.798;2023-02-19T11:07:54;100986.78;;;24.89;62.59
63399;BME280;49533;-34.520;150.798;2023-02-19T11:10:27;100989.16;;;24.87;62.41
63399;BME280;49533;-34.520;150.798;2023-02-19T11:12:58;100983.59;;;24.87;62.60
63399;BME280;49533;-34.520;150.798;2023-02-19T11:15:33;100984.00;;;24.89;62.40
63399;BME280;49533;-34.520;150.798;2023-02-19T11:18:23;100999.88;;;24.92;62.37
63399;BME280;49533;-34.520;150.798;2023-02-19T11:20:54;100993.53;;;24.88;62.38
63399;BME280;49533;-34.520;150.798;2023-02-19T11:23:30;100994.72;;;24.87;62.73
63399;BME280;49533;-34.520;150.798;2023-02-19T11:26:02;100994.31;;;24.85;62.77
63399;BME280;49533;-34.520;150.798;2023-02-19T11:28:35;100993.94;;;24.86;62.49
63399;BME280;49533;-34.520;150.798;2023-02-19T11:31:22;100988.75;;;24.85;62.42
63399;BME280;49533;-34.520;150.798;2023-02-19T11:33:55;100991.53;;;24.81;62.82
63399;BME280;49533;-34.520;150.798;2023-02-19T11:36:27;100993.53;;;24.81;62.36
63399;BME280;49533;-34.520;150.798;2023-02-19T11:38:56;100994.31;;;24.78;62.81
63399;BME280;49533;-34.520;150.798;2023-02-19T11:41:45;100999.47;;;24.76;62.99
63399;BME280;49533;-34.520;150.798;2023-02-19T11:47:29;100996.28;;;24.73;63.09
63399;BME280;49533;-34.520;150.798;2023-02-19T11:50:17;100998.66;;;24.71;62.75
63399;BME280;49533;-34.520;150.798;2023-02-19T11:53:20;100994.28;;;24.70;63.08
63399;BME280;49533;-34.520;150.798;2023-02-19T11:59:00;100991.50;;;24.70;63.13
63399;BME280;49533;-34.520;150.798;2023-02-19T12:01:40;100988.31;;;24.68;63.17
63399;BME280;49533;-34.520;150.798;2023-02-19T12:10:23;100982.75;;;24.68;62.88
63399;BME280;49533;-34.520;150.798;2023-02-19T12:13:14;100987.13;;;24.66;63.07
63399;BME280;49533;-34.520;150.798;2023-02-19T12:16:02;100982.34;;;24.66;63.08
63399;BME280;49533;-34.520;150.798;2023-02-19T12:18:53;100974.41;;;24.61;63.03
63399;BME280;49533;-34.520;150.798;2023-02-19T12:21:42;100982.75;;;24.65;63.05
63399;BME280;49533;-34.520;150.798;2023-02-19T12:27:33;100983.16;;;24.63;63.16
63399;BME280;49533;-34.520;150.798;2023-02-19T12:30:23;100973.25;;;24.62;62.96
63399;BME280;49533;-34.520;150.798;2023-02-19T12:36:03;100980.38;;;24.60;62.56
63399;BME280;49533;-34.520;150.798;2023-02-19T12:38:43;100968.84;;;24.61;63.11
63399;BME280;49533;-34.520;150.798;2023-02-19T12:41:25;100969.63;;;24.58;62.69
63399;BME280;49533;-34.520;150.798;2023-02-19T12:44:04;100974.00;;;24.59;63.06
63399;BME280;49533;-34.520;150.798;2023-02-19T12:46:40;100967.66;;;24.55;63.01
63399;BME280;49533;-34.520;150.798;2023-02-19T12:49:23;100975.19;;;24.58;62.80
63399;BME280;49533;-34.520;150.798;2023-02-19T12:51:57;100973.63;;;24.57;62.71
63399;BME280;49533;-34.520;150.798;2023-02-19T12:54:37;100967.66;;;24.55;62.99
63399;BME280;49533;-34.520;150.798;2023-02-19T12:57:14;100962.88;;;24.56;63.07
63399;BME280;49533;-34.520;150.798;2023-02-19T12:59:59;100959.31;;;24.55;63.07
63399;BME280;49533;-34.520;150.798;2023-02-19T13:02:47;100962.09;;;24.55;63.21
63399;BME280;49533;-34.520;150.798;2023-02-19T13:05:23;100965.25;;;24.54;62.87
63399;BME280;49533;-34.520;150.798;2023-02-19T13:08:02;100959.28;;;24.51;63.08
63399;BME280;49533;-34.520;150.798;2023-02-19T13:10:46;100959.69;;;24.50;63.41
63399;BME280;49533;-34.520;150.798;2023-02-19T13:13:24;100966.03;;;24.47;62.97
63399;BME280;49533;-34.520;150.798;2023-02-19T13:15:59;100965.22;;;24.46;63.34
63399;BME280;49533;-34.520;150.798;2023-02-19T13:18:34;100960.88;;;24.45;63.26
63399;BME280;49533;-34.520;150.798;2023-02-19T13:21:05;100962.44;;;24.46;63.06